sensor_id;sensor_type;location;lat;lon;timestamp;P1;durP1;ratioP1;P2;durP2;ratioP2
70102;SDS011;57470;50.034;15.256;2022-08-19T00:01:37;3.60;;;1.43;;
70102;SDS011;57470;50.034;15.256;2022-08-19T00:04:05;3.47;;;0.80;;
70102;SDS011;57470;50.034;15.256;2022-08-19T00:06:33;4.70;;;1.00;;
70102;SDS011;57470;50.034;15.256;2022-08-19T00:09:00;5.05;;;0.77;;
70102;SDS011;57470;50.034;15.256;2022-08-19T00:11:26;4.23;;;1.23;;
70102;SDS011;57470;50.034;15.256;2022-08-19T00:13:53;7.30;;;1.17;;
70102;SDS011;57470;50.034;15.256;2022-08-19T00:16:19;4.28;;;1.60;;
70102;SDS011;57470;50.034;15.256;2022-08-19T00:18:45;4.75;;;1.40;;
70102;SDS011;57470;50.034;15.256;2022-08-19T00:21:12;3.67;;;1.00;;
70102;SDS011;57470;50.034;15.256;2022-08-19T00:23:37;5.80;;;2.20;;
70102;SDS011;57470;50.034;15.256;2022-08-19T00:26:03;3.30;;;0.90;;
70102;SDS011;57470;50.034;15.256;2022-08-19T00:28:30;3.80;;;0.80;;
70102;SDS011;57470;50.034;15.256;2022-08-19T00:30:57;3.17;;;0.70;;
70102;SDS011;57470;50.034;15.256;2022-08-19T00:33:23;3.88;;;1.23;;
70102;SDS011;57470;50.034;15.256;2022-08-19T00:35:48;4.77;;;1.27;;
70102;SDS011;57470;50.034;15.256;2022-08-19T00:38:14;3.70;;;1.00;;
70102;SDS011;57470;50.034;15.256;2022-08-19T00:40:39;7.90;;;1.00;;
70102;SDS011;57470;50.034;15.256;2022-08-19T00:43:09;3.40;;;1.02;;
70102;SDS011;57470;50.034;15.256;2022-08-19T00:45:38;4.05;;;1.10;;
70102;SDS011;57470;50.034;15.256;2022-08-19T00:48:06;2.90;;;0.80;;
70102;SDS011;57470;50.034;15.256;2022-08-19T00:50:32;4.45;;;1.13;;
70102;SDS011;57470;50.034;15.256;2022-08-19T00:52:59;3.83;;;1.10;;
70102;SDS011;57470;50.034;15.256;2022-08-19T00:55:29;6.47;;;1.40;;
70102;SDS011;57470;50.034;15.256;2022-08-19T00:58:02;4.57;;;1.02;;
70102;SDS011;57470;50.034;15.256;2022-08-19T01:00:34;4.57;;;1.33;;
70102;SDS011;57470;50.034;15.256;2022-08-19T01:03:02;3.92;;;1.00;;
70102;SDS011;57470;50.034;15.256;2022-08-19T01:05:28;3.40;;;1.10;;
70102;SDS011;57470;50.034;15.256;2022-08-19T01:07:54;4.07;;;1.23;;
70102;SDS011;57470;50.034;15.256;2022-08-19T01:10:24;3.70;;;1.00;;
70102;SDS011;57470;50.034;15.256;2022-08-19T01:12:51;3.80;;;1.15;;
70102;SDS011;57470;50.034;15.256;2022-08-19T01:15:20;3.90;;;0.90;;
70102;SDS011;57470;50.034;15.256;2022-08-19T01:17:49;7.28;;;1.23;;
70102;SDS011;57470;50.034;15.256;2022-08-19T01:20:19;5.25;;;1.20;;
70102;SDS011;57470;50.034;15.256;2022-08-19T01:22:47;2.85;;;0.75;;
70102;SDS011;57470;50.034;15.256;2022-08-19T01:25:17;3.53;;;1.05;;
70102;SDS011;57470;50.034;15.256;2022-08-19T01:27:46;2.73;;;0.60;;
70102;SDS011;57470;50.034;15.256;2022-08-19T01:30:15;3.40;;;0.98;;
70102;SDS011;57470;50.034;15.256;2022-08-19T01:32:44;5.20;;;1.45;;
70102;SDS011;57470;50.034;15.256;2022-08-19T01:35:10;3.27;;;0.80;;
70102;SDS011;57470;50.034;15.256;2022-08-19T01:40:20;4.28;;;1.00;;
70102;SDS011;57470;50.034;15.256;2022-08-19T01:42:49;4.43;;;1.45;;
70102;SDS011;57470;50.034;15.256;2022-08-19T01:45:17;3.00;;;0.70;;
70102;SDS011;57470;50.034;15.256;2022-08-19T01:47:45;3.13;;;0.77;;
70102;SDS011;57470;50.034;15.256;2022-08-19T01:50:13;8.45;;;1.42;;
70102;SDS011;57470;50.034;15.256;2022-08-19T01:52:40;3.28;;;1.08;;
70102;SDS011;57470;50.034;15.256;2022-08-19T01:55:11;4.30;;;1.50;;
70102;SDS011;57470;50.034;15.256;2022-08-19T01:57:40;5.53;;;1.37;;
70102;SDS011;57470;50.034;15.256;2022-08-19T02:00:12;3.47;;;1.13;;
70102;SDS011;57470;50.034;15.256;2022-08-19T02:02:40;3.35;;;0.90;;
70102;SDS011;57470;50.034;15.256;2022-08-19T02:05:06;3.08;;;0.70;;
70102;SDS011;57470;50.034;15.256;2022-08-19T02:07:33;5.10;;;1.38;;
70102;SDS011;57470;50.034;15.256;2022-08-19T02:10:01;3.43;;;0.90;;
70102;SDS011;57470;50.034;15.256;2022-08-19T02:12:28;4.93;;;1.02;;
70102;SDS011;57470;50.034;15.256;2022-08-19T02:14:54;4.13;;;1.33;;
70102;SDS011;57470;50.034;15.256;2022-08-19T02:17:19;4.87;;;1.50;;
70102;SDS011;57470;50.034;15.256;2022-08-19T02:19:45;3.93;;;1.07;;
70102;SDS011;57470;50.034;15.256;2022-08-19T02:22:10;3.83;;;1.20;;
70102;SDS011;57470;50.034;15.256;2022-08-19T02:24:36;4.10;;;1.23;;
70102;SDS011;57470;50.034;15.256;2022-08-19T02:27:01;5.57;;;1.53;;
70102;SDS011;57470;50.034;15.256;2022-08-19T02:29:27;5.50;;;1.60;;
70102;SDS011;57470;50.034;15.256;2022-08-19T02:31:52;5.00;;;1.20;;
70102;SDS011;57470;50.034;15.256;2022-08-19T02:34:18;3.83;;;1.27;;
70102;SDS011;57470;50.034;15.256;2022-08-19T02:36:43;4.00;;;1.10;;
70102;SDS011;57470;50.034;15.256;2022-08-19T02:39:09;4.57;;;1.47;;
70102;SDS011;57470;50.034;15.256;2022-08-19T02:41:35;3.03;;;0.95;;
70102;SDS011;57470;50.034;15.256;2022-08-19T02:44:01;4.47;;;1.35;;
70102;SDS011;57470;50.034;15.256;2022-08-19T02:46:29;3.67;;;0.80;;
70102;SDS011;57470;50.034;15.256;2022-08-19T02:48:56;6.07;;;1.33;;
70102;SDS011;57470;50.034;15.256;2022-08-19T02:51:28;3.75;;;1.25;;
70102;SDS011;57470;50.034;15.256;2022-08-19T02:53:56;4.47;;;1.20;;
70102;SDS011;57470;50.034;15.256;2022-08-19T02:56:23;4.45;;;1.70;;
70102;SDS011;57470;50.034;15.256;2022-08-19T02:58:50;5.40;;;1.30;;
70102;SDS011;57470;50.034;15.256;2022-08-19T03:03:49;4.17;;;1.20;;
70102;SDS011;57470;50.034;15.256;2022-08-19T03:06:15;3.30;;;1.10;;
70102;SDS011;57470;50.034;15.256;2022-08-19T03:08:41;6.07;;;1.80;;
70102;SDS011;57470;50.034;15.256;2022-08-19T03:11:22;6.87;;;1.60;;
70102;SDS011;57470;50.034;15.256;2022-08-19T03:13:52;5.43;;;1.60;;
70102;SDS011;57470;50.034;15.256;2022-08-19T03:16:19;8.38;;;1.27;;
70102;SDS011;57470;50.034;15.256;2022-08-19T03:18:48;4.53;;;1.75;;
70102;SDS011;57470;50.034;15.256;2022-08-19T03:21:15;5.40;;;1.50;;
70102;SDS011;57470;50.034;15.256;2022-08-19T03:23:45;4.77;;;1.30;;
70102;SDS011;57470;50.034;15.256;2022-08-19T03:26:10;5.18;;;1.30;;
70102;SDS011;57470;50.034;15.256;2022-08-19T03:28:36;4.40;;;1.13;;
70102;SDS011;57470;50.034;15.256;2022-08-19T03:31:06;4.83;;;1.20;;
70102;SDS011;57470;50.034;15.256;2022-08-19T03:33:35;4.78;;;1.30;;
70102;SDS011;57470;50.034;15.256;2022-08-19T03:36:02;6.63;;;1.20;;
70102;SDS011;57470;50.034;15.256;2022-08-19T03:38:36;5.70;;;1.60;;
70102;SDS011;57470;50.034;15.256;2022-08-19T03:41:04;4.60;;;1.90;;
70102;SDS011;57470;50.034;15.256;2022-08-19T03:43:32;4.13;;;1.60;;
70102;SDS011;57470;50.034;15.256;2022-08-19T03:46:10;4.13;;;1.08;;
70102;SDS011;57470;50.034;15.256;2022-08-19T03:48:38;7.87;;;1.40;;
70102;SDS011;57470;50.034;15.256;2022-08-19T03:51:04;4.32;;;1.33;;
70102;SDS011;57470;50.034;15.256;2022-08-19T03:53:31;6.00;;;1.60;;
70102;SDS011;57470;50.034;15.256;2022-08-19T03:55:57;4.53;;;1.27;;
70102;SDS011;57470;50.034;15.256;2022-08-19T03:58:25;4.50;;;1.38;;
70102;SDS011;57470;50.034;15.256;2022-08-19T04:00:52;5.80;;;1.60;;
70102;SDS011;57470;50.034;15.256;2022-08-19T04:03:18;4.97;;;1.45;;
70102;SDS011;57470;50.034;15.256;2022-08-19T04:05:43;4.40;;;1.67;;
70102;SDS011;57470;50.034;15.256;2022-08-19T04:08:09;4.20;;;1.48;;
70102;SDS011;57470;50.034;15.256;2022-08-19T04:10:36;7.37;;;2.23;;
70102;SDS011;57470;50.034;15.256;2022-08-19T04:13:02;4.47;;;1.38;;
70102;SDS011;57470;50.034;15.256;2022-08-19T04:15:29;7.70;;;1.50;;
70102;SDS011;57470;50.034;15.256;2022-08-19T04:17:56;7.13;;;1.50;;
70102;SDS011;57470;50.034;15.256;2022-08-19T04:20:21;5.90;;;1.90;;
70102;SDS011;57470;50.034;15.256;2022-08-19T04:22:47;4.70;;;1.67;;
70102;SDS011;57470;50.034;15.256;2022-08-19T04:25:12;4.80;;;1.70;;
70102;SDS011;57470;50.034;15.256;2022-08-19T04:27:38;4.95;;;1.63;;
70102;SDS011;57470;50.034;15.256;2022-08-19T04:30:03;5.03;;;1.70;;
70102;SDS011;57470;50.034;15.256;2022-08-19T04:32:29;6.13;;;1.90;;
70102;SDS011;57470;50.034;15.256;2022-08-19T04:34:56;4.73;;;1.73;;
70102;SDS011;57470;50.034;15.256;2022-08-19T04:37:23;6.75;;;2.10;;
70102;SDS011;57470;50.034;15.256;2022-08-19T04:39:51;4.85;;;1.77;;
70102;SDS011;57470;50.034;15.256;2022-08-19T04:42:35;5.75;;;1.98;;
70102;SDS011;57470;50.034;15.256;2022-08-19T04:45:04;7.10;;;2.05;;
70102;SDS011;57470;50.034;15.256;2022-08-19T04:47:31;5.30;;;1.60;;
70102;SDS011;57470;50.034;15.256;2022-08-19T04:49:57;5.53;;;1.95;;
70102;SDS011;57470;50.034;15.256;2022-08-19T04:52:23;5.53;;;1.80;;
70102;SDS011;57470;50.034;15.256;2022-08-19T04:54:49;4.63;;;1.83;;
70102;SDS011;57470;50.034;15.256;2022-08-19T04:57:14;4.67;;;1.40;;
70102;SDS011;57470;50.034;15.256;2022-08-19T04:59:40;8.30;;;2.50;;
70102;SDS011;57470;50.034;15.256;2022-08-19T05:02:06;6.73;;;2.67;;
70102;SDS011;57470;50.034;15.256;2022-08-19T05:04:33;8.20;;;2.90;;
70102;SDS011;57470;50.034;15.256;2022-08-19T05:07:00;5.28;;;2.60;;
70102;SDS011;57470;50.034;15.256;2022-08-19T05:09:26;6.23;;;2.47;;
70102;SDS011;57470;50.034;15.256;2022-08-19T05:11:52;5.30;;;2.08;;
70102;SDS011;57470;50.034;15.256;2022-08-19T05:14:18;5.03;;;1.92;;
70102;SDS011;57470;50.034;15.256;2022-08-19T05:16:44;4.70;;;1.98;;
70102;SDS011;57470;50.034;15.256;2022-08-19T05:19:10;5.23;;;2.43;;
70102;SDS011;57470;50.034;15.256;2022-08-19T05:21:54;5.38;;;2.08;;
70102;SDS011;57470;50.034;15.256;2022-08-19T05:24:38;5.82;;;2.38;;
70102;SDS011;57470;50.034;15.256;2022-08-19T05:27:04;8.17;;;2.33;;
70102;SDS011;57470;50.034;15.256;2022-08-19T05:29:30;5.88;;;2.63;;
70102;SDS011;57470;50.034;15.256;2022-08-19T05:31:56;5.67;;;2.20;;
70102;SDS011;57470;50.034;15.256;2022-08-19T05:34:23;6.03;;;2.22;;
70102;SDS011;57470;50.034;15.256;2022-08-19T05:36:52;5.53;;;1.98;;
70102;SDS011;57470;50.034;15.256;2022-08-19T05:39:22;7.90;;;3.08;;
70102;SDS011;57470;50.034;15.256;2022-08-19T05:41:51;8.43;;;2.38;;
70102;SDS011;57470;50.034;15.256;2022-08-19T05:44:19;6.63;;;1.97;;
70102;SDS011;57470;50.034;15.256;2022-08-19T05:46:46;6.07;;;2.30;;
70102;SDS011;57470;50.034;15.256;2022-08-19T05:49:12;9.07;;;2.55;;
70102;SDS011;57470;50.034;15.256;2022-08-19T05:51:39;6.35;;;2.05;;
70102;SDS011;57470;50.034;15.256;2022-08-19T05:54:05;5.17;;;1.73;;
70102;SDS011;57470;50.034;15.256;2022-08-19T05:56:32;6.32;;;2.40;;
70102;SDS011;57470;50.034;15.256;2022-08-19T05:59:02;7.07;;;3.22;;
70102;SDS011;57470;50.034;15.256;2022-08-19T06:01:29;6.25;;;2.42;;
70102;SDS011;57470;50.034;15.256;2022-08-19T06:03:54;7.63;;;3.03;;
70102;SDS011;57470;50.034;15.256;2022-08-19T06:06:20;9.25;;;4.28;;
70102;SDS011;57470;50.034;15.256;2022-08-19T06:08:46;15.77;;;4.70;;
70102;SDS011;57470;50.034;15.256;2022-08-19T06:11:22;203.88;;;81.05;;
70102;SDS011;57470;50.034;15.256;2022-08-19T06:14:08;30.70;;;12.07;;
70102;SDS011;57470;50.034;15.256;2022-08-19T06:16:42;9.93;;;5.40;;
70102;SDS011;57470;50.034;15.256;2022-08-19T06:19:13;10.13;;;4.80;;
70102;SDS011;57470;50.034;15.256;2022-08-19T06:21:41;143.83;;;57.60;;
70102;SDS011;57470;50.034;15.256;2022-08-19T06:24:13;32.38;;;13.35;;
70102;SDS011;57470;50.034;15.256;2022-08-19T06:26:42;9.00;;;5.10;;
70102;SDS011;57470;50.034;15.256;2022-08-19T06:29:12;11.57;;;5.75;;
70102;SDS011;57470;50.034;15.256;2022-08-19T06:31:43;12.10;;;5.75;;
70102;SDS011;57470;50.034;15.256;2022-08-19T06:34:11;11.77;;;5.77;;
70102;SDS011;57470;50.034;15.256;2022-08-19T06:36:38;9.98;;;5.43;;
70102;SDS011;57470;50.034;15.256;2022-08-19T06:39:12;398.05;;;147.68;;
70102;SDS011;57470;50.034;15.256;2022-08-19T06:41:41;340.17;;;135.13;;
70102;SDS011;57470;50.034;15.256;2022-08-19T06:44:08;368.92;;;144.25;;
70102;SDS011;57470;50.034;15.256;2022-08-19T06:46:35;142.13;;;69.03;;
70102;SDS011;57470;50.034;15.256;2022-08-19T06:49:01;19.05;;;8.70;;
70102;SDS011;57470;50.034;15.256;2022-08-19T06:51:26;9.57;;;4.95;;
70102;SDS011;57470;50.034;15.256;2022-08-19T06:53:53;10.87;;;4.83;;
70102;SDS011;57470;50.034;15.256;2022-08-19T06:56:21;9.43;;;5.10;;
70102;SDS011;57470;50.034;15.256;2022-08-19T06:58:58;11.15;;;6.57;;
70102;SDS011;57470;50.034;15.256;2022-08-19T07:01:28;11.73;;;5.25;;
70102;SDS011;57470;50.034;15.256;2022-08-19T07:03:54;9.80;;;5.83;;
70102;SDS011;57470;50.034;15.256;2022-08-19T07:06:20;12.73;;;5.77;;
70102;SDS011;57470;50.034;15.256;2022-08-19T07:08:45;8.40;;;4.45;;
70102;SDS011;57470;50.034;15.256;2022-08-19T07:11:14;9.15;;;5.15;;
70102;SDS011;57470;50.034;15.256;2022-08-19T07:13:43;9.53;;;4.70;;
70102;SDS011;57470;50.034;15.256;2022-08-19T07:16:11;9.40;;;4.72;;
70102;SDS011;57470;50.034;15.256;2022-08-19T07:18:39;12.05;;;4.38;;
70102;SDS011;57470;50.034;15.256;2022-08-19T07:21:06;13.75;;;6.35;;
70102;SDS011;57470;50.034;15.256;2022-08-19T07:23:37;10.85;;;5.35;;
70102;SDS011;57470;50.034;15.256;2022-08-19T07:26:16;9.47;;;4.73;;
70102;SDS011;57470;50.034;15.256;2022-08-19T07:28:44;10.65;;;4.97;;
70102;SDS011;57470;50.034;15.256;2022-08-19T07:31:12;12.75;;;6.03;;
70102;SDS011;57470;50.034;15.256;2022-08-19T07:33:39;13.30;;;6.40;;
70102;SDS011;57470;50.034;15.256;2022-08-19T07:36:06;9.90;;;5.43;;
70102;SDS011;57470;50.034;15.256;2022-08-19T07:38:33;13.00;;;5.25;;
70102;SDS011;57470;50.034;15.256;2022-08-19T07:40:59;11.68;;;5.93;;
70102;SDS011;57470;50.034;15.256;2022-08-19T07:43:26;11.13;;;5.63;;
70102;SDS011;57470;50.034;15.256;2022-08-19T07:45:53;11.77;;;6.68;;
70102;SDS011;57470;50.034;15.256;2022-08-19T07:48:23;11.67;;;5.90;;
70102;SDS011;57470;50.034;15.256;2022-08-19T07:50:51;12.43;;;6.00;;
70102;SDS011;57470;50.034;15.256;2022-08-19T07:53:17;21.10;;;6.53;;
70102;SDS011;57470;50.034;15.256;2022-08-19T07:55:44;11.65;;;6.03;;
70102;SDS011;57470;50.034;15.256;2022-08-19T07:58:11;10.03;;;5.00;;
70102;SDS011;57470;50.034;15.256;2022-08-19T08:00:38;12.85;;;5.93;;
70102;SDS011;57470;50.034;15.256;2022-08-19T08:03:03;12.63;;;5.73;;
70102;SDS011;57470;50.034;15.256;2022-08-19T08:05:29;13.83;;;8.23;;
70102;SDS011;57470;50.034;15.256;2022-08-19T08:08:13;15.32;;;7.13;;
70102;SDS011;57470;50.034;15.256;2022-08-19T08:11:07;13.25;;;7.50;;
70102;SDS011;57470;50.034;15.256;2022-08-19T08:13:33;15.70;;;6.73;;
70102;SDS011;57470;50.034;15.256;2022-08-19T08:16:00;11.60;;;6.55;;
70102;SDS011;57470;50.034;15.256;2022-08-19T08:18:27;15.02;;;6.20;;
70102;SDS011;57470;50.034;15.256;2022-08-19T08:20:53;13.20;;;5.90;;
70102;SDS011;57470;50.034;15.256;2022-08-19T08:23:19;16.73;;;7.93;;
70102;SDS011;57470;50.034;15.256;2022-08-19T08:25:47;15.43;;;7.90;;
70102;SDS011;57470;50.034;15.256;2022-08-19T08:28:14;12.55;;;5.68;;
70102;SDS011;57470;50.034;15.256;2022-08-19T08:30:41;13.00;;;6.55;;
70102;SDS011;57470;50.034;15.256;2022-08-19T08:33:08;12.38;;;6.50;;
70102;SDS011;57470;50.034;15.256;2022-08-19T08:35:35;12.97;;;5.83;;
70102;SDS011;57470;50.034;15.256;2022-08-19T08:38:03;13.32;;;6.40;;
70102;SDS011;57470;50.034;15.256;2022-08-19T08:40:34;10.73;;;5.68;;
70102;SDS011;57470;50.034;15.256;2022-08-19T08:43:14;13.27;;;6.95;;
70102;SDS011;57470;50.034;15.256;2022-08-19T08:46:00;12.07;;;6.17;;
70102;SDS011;57470;50.034;15.256;2022-08-19T08:48:41;15.35;;;5.72;;
70102;SDS011;57470;50.034;15.256;2022-08-19T08:51:16;15.85;;;7.00;;
70102;SDS011;57470;50.034;15.256;2022-08-19T08:54:04;11.70;;;6.45;;
70102;SDS011;57470;50.034;15.256;2022-08-19T08:56:31;13.50;;;6.15;;
70102;SDS011;57470;50.034;15.256;2022-08-19T08:59:06;12.50;;;5.63;;
70102;SDS011;57470;50.034;15.256;2022-08-19T09:01:37;12.88;;;6.20;;
70102;SDS011;57470;50.034;15.256;2022-08-19T09:04:09;14.98;;;6.22;;
70102;SDS011;57470;50.034;15.256;2022-08-19T09:09:35;12.25;;;6.70;;
70102;SDS011;57470;50.034;15.256;2022-08-19T09:12:13;12.50;;;6.33;;
70102;SDS011;57470;50.034;15.256;2022-08-19T09:14:58;18.23;;;7.00;;
70102;SDS011;57470;50.034;15.256;2022-08-19T09:17:29;12.43;;;6.70;;
70102;SDS011;57470;50.034;15.256;2022-08-19T09:22:23;13.50;;;5.88;;
70102;SDS011;57470;50.034;15.256;2022-08-19T09:24:49;13.23;;;6.50;;
70102;SDS011;57470;50.034;15.256;2022-08-19T09:27:19;11.00;;;6.38;;
70102;SDS011;57470;50.034;15.256;2022-08-19T09:29:51;13.30;;;6.45;;
70102;SDS011;57470;50.034;15.256;2022-08-19T09:32:19;11.25;;;6.25;;
70102;SDS011;57470;50.034;15.256;2022-08-19T09:34:45;13.55;;;7.15;;
70102;SDS011;57470;50.034;15.256;2022-08-19T09:37:12;14.80;;;6.40;;
70102;SDS011;57470;50.034;15.256;2022-08-19T09:39:38;12.93;;;6.20;;
70102;SDS011;57470;50.034;15.256;2022-08-19T09:42:06;12.50;;;6.70;;
70102;SDS011;57470;50.034;15.256;2022-08-19T09:44:36;12.82;;;5.75;;
70102;SDS011;57470;50.034;15.256;2022-08-19T09:47:06;16.95;;;6.22;;
70102;SDS011;57470;50.034;15.256;2022-08-19T09:49:32;11.63;;;5.57;;
70102;SDS011;57470;50.034;15.256;2022-08-19T09:51:58;12.40;;;6.07;;
70102;SDS011;57470;50.034;15.256;2022-08-19T09:54:24;10.17;;;5.00;;
70102;SDS011;57470;50.034;15.256;2022-08-19T09:56:53;11.25;;;5.93;;
70102;SDS011;57470;50.034;15.256;2022-08-19T09:59:19;15.93;;;7.38;;
70102;SDS011;57470;50.034;15.256;2022-08-19T10:01:46;12.57;;;5.33;;
70102;SDS011;57470;50.034;15.256;2022-08-19T10:04:11;11.45;;;6.45;;
70102;SDS011;57470;50.034;15.256;2022-08-19T10:06:38;10.93;;;5.95;;
70102;SDS011;57470;50.034;15.256;2022-08-19T10:09:07;11.87;;;5.90;;
70102;SDS011;57470;50.034;15.256;2022-08-19T10:11:35;12.18;;;6.22;;
70102;SDS011;57470;50.034;15.256;2022-08-19T10:14:02;14.20;;;6.80;;
70102;SDS011;57470;50.034;15.256;2022-08-19T10:16:30;13.68;;;7.47;;
70102;SDS011;57470;50.034;15.256;2022-08-19T10:18:56;11.48;;;6.78;;
70102;SDS011;57470;50.034;15.256;2022-08-19T10:21:24;11.80;;;6.93;;
70102;SDS011;57470;50.034;15.256;2022-08-19T10:23:53;10.82;;;5.32;;
70102;SDS011;57470;50.034;15.256;2022-08-19T10:26:23;11.20;;;6.28;;
70102;SDS011;57470;50.034;15.256;2022-08-19T10:28:54;12.50;;;6.85;;
70102;SDS011;57470;50.034;15.256;2022-08-19T10:31:21;11.45;;;6.00;;
70102;SDS011;57470;50.034;15.256;2022-08-19T10:33:49;14.00;;;5.87;;
70102;SDS011;57470;50.034;15.256;2022-08-19T10:36:19;13.27;;;7.13;;
70102;SDS011;57470;50.034;15.256;2022-08-19T10:38:48;13.07;;;7.10;;
70102;SDS011;57470;50.034;15.256;2022-08-19T10:41:19;12.75;;;5.85;;
70102;SDS011;57470;50.034;15.256;2022-08-19T10:43:49;11.40;;;5.68;;
70102;SDS011;57470;50.034;15.256;2022-08-19T10:46:17;10.20;;;5.37;;
70102;SDS011;57470;50.034;15.256;2022-08-19T10:48:43;11.18;;;5.88;;
70102;SDS011;57470;50.034;15.256;2022-08-19T10:51:09;11.77;;;6.45;;
70102;SDS011;57470;50.034;15.256;2022-08-19T10:53:55;9.70;;;5.22;;
70102;SDS011;57470;50.034;15.256;2022-08-19T10:56:22;13.07;;;5.30;;
70102;SDS011;57470;50.034;15.256;2022-08-19T10:59:06;13.00;;;7.05;;
70102;SDS011;57470;50.034;15.256;2022-08-19T11:01:32;12.68;;;6.03;;
70102;SDS011;57470;50.034;15.256;2022-08-19T11:04:02;13.80;;;6.07;;
70102;SDS011;57470;50.034;15.256;2022-08-19T11:06:29;11.43;;;6.00;;
70102;SDS011;57470;50.034;15.256;2022-08-19T11:08:56;12.80;;;6.40;;
70102;SDS011;57470;50.034;15.256;2022-08-19T11:11:23;11.80;;;6.47;;
70102;SDS011;57470;50.034;15.256;2022-08-19T11:13:48;14.77;;;8.07;;
70102;SDS011;57470;50.034;15.256;2022-08-19T11:16:21;9.88;;;5.68;;
70102;SDS011;57470;50.034;15.256;2022-08-19T11:18:49;9.68;;;4.55;;
70102;SDS011;57470;50.034;15.256;2022-08-19T11:21:24;12.15;;;5.90;;
70102;SDS011;57470;50.034;15.256;2022-08-19T11:23:53;11.48;;;5.38;;
70102;SDS011;57470;50.034;15.256;2022-08-19T11:26:20;11.27;;;6.50;;
70102;SDS011;57470;50.034;15.256;2022-08-19T11:28:47;9.63;;;6.15;;
70102;SDS011;57470;50.034;15.256;2022-08-19T11:31:21;10.30;;;5.53;;
70102;SDS011;57470;50.034;15.256;2022-08-19T11:33:48;12.02;;;6.00;;
70102;SDS011;57470;50.034;15.256;2022-08-19T11:36:18;12.68;;;6.43;;
70102;SDS011;57470;50.034;15.256;2022-08-19T11:38:45;12.77;;;7.20;;
70102;SDS011;57470;50.034;15.256;2022-08-19T11:41:13;14.48;;;6.72;;
70102;SDS011;57470;50.034;15.256;2022-08-19T11:43:40;12.32;;;6.63;;
70102;SDS011;57470;50.034;15.256;2022-08-19T11:46:06;11.97;;;5.93;;
70102;SDS011;57470;50.034;15.256;2022-08-19T11:48:33;11.60;;;6.70;;
70102;SDS011;57470;50.034;15.256;2022-08-19T11:51:02;16.98;;;6.22;;
70102;SDS011;57470;50.034;15.256;2022-08-19T11:53:31;10.60;;;5.38;;
70102;SDS011;57470;50.034;15.256;2022-08-19T11:55:57;12.23;;;4.80;;
70102;SDS011;57470;50.034;15.256;2022-08-19T11:58:23;10.85;;;5.55;;
70102;SDS011;57470;50.034;15.256;2022-08-19T12:00:49;10.70;;;5.97;;
70102;SDS011;57470;50.034;15.256;2022-08-19T12:03:15;10.97;;;5.77;;
70102;SDS011;57470;50.034;15.256;2022-08-19T12:05:41;10.52;;;6.50;;
70102;SDS011;57470;50.034;15.256;2022-08-19T12:08:06;11.33;;;5.70;;
70102;SDS011;57470;50.034;15.256;2022-08-19T12:10:32;11.52;;;6.25;;
70102;SDS011;57470;50.034;15.256;2022-08-19T12:12:59;11.13;;;6.63;;
70102;SDS011;57470;50.034;15.256;2022-08-19T12:15:25;13.73;;;6.57;;
70102;SDS011;57470;50.034;15.256;2022-08-19T12:17:54;9.43;;;5.23;;
70102;SDS011;57470;50.034;15.256;2022-08-19T12:20:22;14.05;;;5.20;;
70102;SDS011;57470;50.034;15.256;2022-08-19T12:22:49;9.48;;;5.82;;
70102;SDS011;57470;50.034;15.256;2022-08-19T12:25:15;10.02;;;5.47;;
70102;SDS011;57470;50.034;15.256;2022-08-19T12:27:41;9.35;;;4.95;;
70102;SDS011;57470;50.034;15.256;2022-08-19T12:30:09;11.17;;;5.30;;
70102;SDS011;57470;50.034;15.256;2022-08-19T12:32:36;10.10;;;5.43;;
70102;SDS011;57470;50.034;15.256;2022-08-19T12:35:02;11.02;;;5.45;;
70102;SDS011;57470;50.034;15.256;2022-08-19T12:37:28;13.15;;;6.45;;
70102;SDS011;57470;50.034;15.256;2022-08-19T12:39:54;13.20;;;5.87;;
70102;SDS011;57470;50.034;15.256;2022-08-19T12:42:20;11.13;;;6.32;;
70102;SDS011;57470;50.034;15.256;2022-08-19T12:44:46;11.48;;;6.15;;
70102;SDS011;57470;50.034;15.256;2022-08-19T12:47:12;11.23;;;5.67;;
70102;SDS011;57470;50.034;15.256;2022-08-19T12:49:39;9.07;;;5.55;;
70102;SDS011;57470;50.034;15.256;2022-08-19T12:52:06;10.60;;;5.88;;
70102;SDS011;57470;50.034;15.256;2022-08-19T12:54:35;10.10;;;5.70;;
70102;SDS011;57470;50.034;15.256;2022-08-19T12:57:04;9.10;;;5.38;;
70102;SDS011;57470;50.034;15.256;2022-08-19T12:59:32;9.02;;;5.30;;
70102;SDS011;57470;50.034;15.256;2022-08-19T13:01:58;11.32;;;5.55;;
70102;SDS011;57470;50.034;15.256;2022-08-19T13:04:24;11.13;;;5.73;;
70102;SDS011;57470;50.034;15.256;2022-08-19T13:06:49;9.53;;;4.73;;
70102;SDS011;57470;50.034;15.256;2022-08-19T13:09:15;10.80;;;5.85;;
70102;SDS011;57470;50.034;15.256;2022-08-19T13:11:40;10.67;;;5.83;;
70102;SDS011;57470;50.034;15.256;2022-08-19T13:14:06;15.37;;;6.50;;
70102;SDS011;57470;50.034;15.256;2022-08-19T13:16:31;11.13;;;5.18;;
70102;SDS011;57470;50.034;15.256;2022-08-19T13:18:57;8.33;;;4.33;;
70102;SDS011;57470;50.034;15.256;2022-08-19T13:21:24;11.77;;;5.60;;
70102;SDS011;57470;50.034;15.256;2022-08-19T13:23:53;10.67;;;6.40;;
70102;SDS011;57470;50.034;15.256;2022-08-19T13:26:19;11.25;;;5.95;;
70102;SDS011;57470;50.034;15.256;2022-08-19T13:28:45;12.93;;;6.18;;
70102;SDS011;57470;50.034;15.256;2022-08-19T13:31:30;15.65;;;6.07;;
70102;SDS011;57470;50.034;15.256;2022-08-19T13:34:17;12.88;;;5.53;;
70102;SDS011;57470;50.034;15.256;2022-08-19T13:36:44;11.03;;;5.70;;
70102;SDS011;57470;50.034;15.256;2022-08-19T13:39:09;9.80;;;4.95;;
70102;SDS011;57470;50.034;15.256;2022-08-19T13:41:35;10.13;;;5.60;;
70102;SDS011;57470;50.034;15.256;2022-08-19T13:44:02;10.90;;;5.67;;
70102;SDS011;57470;50.034;15.256;2022-08-19T13:46:28;10.35;;;5.82;;
70102;SDS011;57470;50.034;15.256;2022-08-19T13:48:55;9.85;;;5.47;;
70102;SDS011;57470;50.034;15.256;2022-08-19T13:51:22;11.98;;;5.03;;
70102;SDS011;57470;50.034;15.256;2022-08-19T13:53:47;11.23;;;5.07;;
70102;SDS011;57470;50.034;15.256;2022-08-19T13:56:14;10.43;;;5.10;;
70102;SDS011;57470;50.034;15.256;2022-08-19T13:58:41;12.93;;;5.15;;
70102;SDS011;57470;50.034;15.256;2022-08-19T14:01:07;10.45;;;5.03;;
70102;SDS011;57470;50.034;15.256;2022-08-19T14:03:33;9.33;;;5.57;;
70102;SDS011;57470;50.034;15.256;2022-08-19T14:05:59;11.88;;;5.80;;
70102;SDS011;57470;50.034;15.256;2022-08-19T14:08:25;10.20;;;5.20;;
70102;SDS011;57470;50.034;15.256;2022-08-19T14:10:52;11.33;;;5.47;;
70102;SDS011;57470;50.034;15.256;2022-08-19T14:13:19;24.70;;;5.65;;
70102;SDS011;57470;50.034;15.256;2022-08-19T14:15:47;13.23;;;5.05;;
70102;SDS011;57470;50.034;15.256;2022-08-19T14:18:15;10.82;;;4.85;;
70102;SDS011;57470;50.034;15.256;2022-08-19T14:20:41;10.45;;;5.43;;
70102;SDS011;57470;50.034;15.256;2022-08-19T14:23:07;13.87;;;6.03;;
70102;SDS011;57470;50.034;15.256;2022-08-19T14:25:33;15.30;;;5.57;;
70102;SDS011;57470;50.034;15.256;2022-08-19T14:27:59;10.88;;;5.88;;
70102;SDS011;57470;50.034;15.256;2022-08-19T14:30:26;12.90;;;5.73;;
70102;SDS011;57470;50.034;15.256;2022-08-19T14:32:57;14.02;;;7.05;;
70102;SDS011;57470;50.034;15.256;2022-08-19T14:35:25;11.18;;;5.97;;
70102;SDS011;57470;50.034;15.256;2022-08-19T14:37:52;8.82;;;4.68;;
70102;SDS011;57470;50.034;15.256;2022-08-19T14:40:23;12.52;;;6.03;;
70102;SDS011;57470;50.034;15.256;2022-08-19T14:42:54;11.30;;;5.23;;
70102;SDS011;57470;50.034;15.256;2022-08-19T14:45:28;12.63;;;5.78;;